createdAt,value
2023-03-26T00:01:40.372Z,97950.80
2023-03-26T00:04:08.447Z,97954.80
2023-03-26T00:06:39.969Z,97954.00
2023-03-26T00:09:13.232Z,97961.00
2023-03-26T00:11:41.920Z,97969.20
2023-03-26T00:14:14.216Z,97968.80
2023-03-26T00:16:42.775Z,97966.20
2023-03-26T00:19:12.706Z,97963.60
2023-03-26T00:21:41.640Z,97963.80
2023-03-26T00:24:17.517Z,97959.60
2023-03-26T00:26:48.714Z,97954.20
2023-03-26T00:29:16.992Z,97956.00
2023-03-26T00:31:46.371Z,97947.20
2023-03-26T00:34:18.523Z,97947.00
2023-03-26T00:36:47.188Z,97940.80
2023-03-26T00:39:17.718Z,97938.20
2023-03-26T00:41:45.518Z,97932.00
2023-03-26T00:44:13.400Z,97932.00
2023-03-26T00:46:41.283Z,97930.60
2023-03-26T00:49:10.991Z,97933.80
2023-03-26T00:51:39.626Z,97928.20
2023-03-26T00:54:08.795Z,97930.20
2023-03-26T00:56:37.039Z,97927.80
2023-03-26T00:59:04.780Z,97932.20
2023-03-26T01:01:32.643Z,97930.20
2023-03-26T01:04:24.226Z,97927.40
2023-03-26T01:06:52.087Z,97927.60
2023-03-26T01:09:27.833Z,97928.00
2023-03-26T01:11:55.544Z,97927.00
2023-03-26T01:14:26.885Z,97926.00
2023-03-26T01:17:07.344Z,97923.40
2023-03-26T01:20:11.913Z,97921.00
2023-03-26T01:22:51.235Z,97921.80
2023-03-26T01:25:25.351Z,97920.60
2023-03-26T01:27:56.079Z,97910.80
2023-03-26T01:30:42.335Z,97913.00
2023-03-26T01:33:45.669Z,97913.40
2023-03-26T01:36:50.129Z,97909.00
2023-03-26T01:39:39.048Z,97911.40
2023-03-26T01:42:13.003Z,97916.80
2023-03-26T01:45:09.994Z,97906.60
2023-03-26T01:47:42.166Z,97908.20
2023-03-26T01:50:10.517Z,97907.20
2023-03-26T01:52:38.939Z,97906.00
2023-03-26T01:55:11.778Z,97902.60
2023-03-26T01:58:10.590Z,97903.20
2023-03-26T02:01:17.377Z,97899.20
2023-03-26T02:04:02.056Z,97902.60
2023-03-26T02:06:46.016Z,97900.40
2023-03-26T02:09:24.762Z,97904.40
2023-03-26T02:11:54.057Z,97898.20
2023-03-26T02:14:22.028Z,97899.20
2023-03-26T02:16:51.596Z,97893.00
2023-03-26T02:19:21.641Z,97896.40
2023-03-26T02:21:51.602Z,97896.40
2023-03-26T02:24:20.223Z,97896.40
2023-03-26T02:26:47.868Z,97894.80
2023-03-26T02:29:20.571Z,97895.80
2023-03-26T02:31:49.603Z,97895.60
2023-03-26T02:34:17.446Z,97894.40
2023-03-26T02:36:45.063Z,97897.80
2023-03-26T02:39:14.464Z,97897.60
2023-03-26T02:41:42.166Z,97897.20
2023-03-26T02:44:09.834Z,97900.00
2023-03-26T02:46:37.479Z,97893.20
2023-03-26T02:49:05.490Z,97895.40
2023-03-26T02:51:34.930Z,97891.60
2023-03-26T02:54:02.730Z,97893.60
2023-03-26T02:56:30.611Z,97895.80
2023-03-26T02:58:58.432Z,97899.00
2023-03-26T03:01:26.140Z,97893.80
2023-03-26T03:03:54.290Z,97901.20
2023-03-26T03:06:22.412Z,97892.40
2023-03-26T03:08:50.037Z,97898.00
2023-03-26T03:11:24.905Z,97891.60
2023-03-26T03:13:54.189Z,97895.40
2023-03-26T03:16:22.060Z,97894.40
2023-03-26T03:18:54.667Z,97888.80
2023-03-26T03:21:29.460Z,97890.60
2023-03-26T03:23:59.739Z,97887.40
2023-03-26T03:26:30.070Z,97889.80
2023-03-26T03:28:58.598Z,97891.20
2023-03-26T03:31:28.366Z,97887.40
2023-03-26T03:33:56.179Z,97885.80
2023-03-26T03:36:27.980Z,97887.20
2023-03-26T03:38:56.171Z,97889.80
2023-03-26T03:41:23.884Z,97889.40
2023-03-26T03:43:51.969Z,97893.40
2023-03-26T03:46:19.642Z,97890.20
2023-03-26T03:48:50.464Z,97891.00
2023-03-26T03:51:18.767Z,97891.20
2023-03-26T03:53:47.636Z,97895.40
2023-03-26T03:56:19.100Z,97890.60
2023-03-26T03:58:47.431Z,97882.00
2023-03-26T04:01:16.858Z,97887.60
2023-03-26T04:03:47.023Z,97892.20
2023-03-26T04:06:18.820Z,97893.20
2023-03-26T04:08:47.167Z,97901.40
2023-03-26T04:11:14.959Z,97901.20
2023-03-26T04:13:43.652Z,97897.60
2023-03-26T04:16:11.698Z,97897.00
2023-03-26T04:18:39.921Z,97890.20
2023-03-26T04:21:08.047Z,97885.60
2023-03-26T04:23:35.715Z,97889.80
2023-03-26T04:26:07.512Z,97889.20
2023-03-26T04:28:46.364Z,97887.60
2023-03-26T04:31:18.419Z,97886.40
2023-03-26T04:33:47.813Z,97884.20
2023-03-26T04:36:18.087Z,97884.60
2023-03-26T04:38:52.007Z,97881.20
2023-03-26T04:41:20.475Z,97884.40
2023-03-26T04:43:50.556Z,97885.80
2023-03-26T04:46:23.575Z,97887.20
2023-03-26T04:48:52.974Z,97888.60
2023-03-26T04:51:25.852Z,97880.00
2023-03-26T04:53:58.293Z,97884.80
2023-03-26T04:56:54.448Z,97883.40
2023-03-26T04:59:35.238Z,97881.20
2023-03-26T05:02:06.209Z,97879.80
2023-03-26T05:04:36.845Z,97882.80
2023-03-26T05:07:04.542Z,97878.60
2023-03-26T05:09:32.219Z,97882.60
2023-03-26T05:11:59.935Z,97877.00
2023-03-26T05:14:27.593Z,97885.40
2023-03-26T05:16:55.900Z,97889.00
2023-03-26T05:19:23.571Z,97887.20
2023-03-26T05:21:51.337Z,97890.00
2023-03-26T05:24:19.973Z,97891.20
2023-03-26T05:26:47.620Z,97894.00
2023-03-26T05:29:17.920Z,97890.80
2023-03-26T05:31:45.611Z,97894.80
2023-03-26T05:34:13.274Z,97892.00
2023-03-26T05:36:42.605Z,97888.00
2023-03-26T05:39:10.298Z,97887.00
2023-03-26T05:41:38.042Z,97889.60
2023-03-26T05:44:05.999Z,97883.40
2023-03-26T05:46:33.824Z,97889.80
2023-03-26T05:49:01.586Z,97886.20
2023-03-26T05:51:29.248Z,97877.00
2023-03-26T05:53:56.881Z,97884.00
2023-03-26T05:56:24.586Z,97890.40
2023-03-26T05:58:52.294Z,97886.40
2023-03-26T06:01:20.759Z,97890.40
2023-03-26T06:03:48.884Z,97883.60
2023-03-26T06:06:20.514Z,97886.80
2023-03-26T06:09:01.432Z,97888.80
2023-03-26T06:11:32.123Z,97893.20
2023-03-26T06:14:00.744Z,97893.20
2023-03-26T06:16:28.656Z,97889.60
2023-03-26T06:18:57.703Z,97890.40
2023-03-26T06:21:27.188Z,97897.00
2023-03-26T06:23:56.167Z,97888.20
2023-03-26T06:26:23.842Z,97895.20
2023-03-26T06:28:51.703Z,97895.40
2023-03-26T06:31:19.560Z,97895.00
2023-03-26T06:33:48.836Z,97902.20
2023-03-26T06:36:16.680Z,97906.60
2023-03-26T06:38:44.360Z,97915.40
2023-03-26T06:41:12.460Z,97911.80
2023-03-26T06:43:40.454Z,97916.20
2023-03-26T06:46:08.618Z,97913.00
2023-03-26T06:48:36.359Z,97919.00
2023-03-26T06:51:04.267Z,97925.00
2023-03-26T06:53:31.984Z,97932.40
2023-03-26T06:55:59.936Z,97931.20
2023-03-26T06:58:27.894Z,97935.40
2023-03-26T07:00:56.982Z,97936.60
2023-03-26T07:03:24.968Z,97935.40
2023-03-26T07:05:52.800Z,97932.80
2023-03-26T07:08:20.959Z,97934.20
2023-03-26T07:10:48.839Z,97937.40
2023-03-26T07:13:16.461Z,97939.60
2023-03-26T07:15:44.077Z,97937.40
2023-03-26T07:18:11.814Z,97928.80
2023-03-26T07:20:40.492Z,97930.60
2023-03-26T07:23:10.878Z,97933.00
2023-03-26T07:25:39.427Z,97935.00
2023-03-26T07:28:25.707Z,97937.80
2023-03-26T07:31:38.466Z,97935.60
2023-03-26T07:34:31.222Z,97940.20
2023-03-26T07:37:20.488Z,97931.00
2023-03-26T07:40:03.058Z,97932.00
2023-03-26T07:42:59.009Z,97935.60
2023-03-26T07:45:57.624Z,97931.80
2023-03-26T07:48:41.332Z,97931.60
2023-03-26T07:51:11.351Z,97925.00
2023-03-26T07:53:40.287Z,97934.20
2023-03-26T07:56:17.021Z,97928.80
2023-03-26T07:59:06.024Z,97929.20
2023-03-26T08:02:11.348Z,97924.40
2023-03-26T08:05:10.524Z,97930.20
2023-03-26T08:08:18.372Z,97926.40
2023-03-26T08:11:19.582Z,97924.00
2023-03-26T08:14:04.039Z,97929.20
2023-03-26T08:17:39.650Z,97920.00
2023-03-26T08:20:41.529Z,97921.60
2023-03-26T08:23:29.495Z,97915.20
2023-03-26T08:26:18.602Z,97921.00
2023-03-26T08:28:58.952Z,97911.60
2023-03-26T08:31:39.051Z,97916.60
2023-03-26T08:34:12.075Z,97912.80
2023-03-26T08:36:40.541Z,97902.40
2023-03-26T08:39:09.080Z,97904.40
2023-03-26T08:42:30.740Z,97901.00
2023-03-26T08:45:25.925Z,97896.00
2023-03-26T08:48:14.750Z,97899.60
2023-03-26T08:51:37.089Z,97900.80
2023-03-26T08:54:36.911Z,97893.40
2023-03-26T08:57:18.474Z,97892.60
2023-03-26T09:00:43.345Z,97886.60
2023-03-26T09:04:06.423Z,97892.00
2023-03-26T09:07:01.801Z,97884.00
2023-03-26T09:10:17.082Z,97872.60
2023-03-26T09:13:15.105Z,97867.80
2023-03-26T09:15:58.062Z,97865.20
2023-03-26T09:19:03.852Z,97862.00
2023-03-26T09:22:48.017Z,97857.00
2023-03-26T09:25:42.892Z,97860.60
2023-03-26T09:28:52.382Z,97862.80
2023-03-26T09:32:06.030Z,97852.60
2023-03-26T09:35:01.845Z,97850.20
2023-03-26T09:37:57.185Z,97850.80
2023-03-26T09:40:55.737Z,97860.20
2023-03-26T09:44:06.939Z,97848.60
2023-03-26T09:46:58.814Z,97850.40
2023-03-26T09:49:53.761Z,97850.40
2023-03-26T09:52:46.152Z,97843.80
2023-03-26T09:55:38.508Z,97843.80
2023-03-26T09:58:37.446Z,97842.20
2023-03-26T10:01:29.323Z,97842.00
2023-03-26T10:04:18.215Z,97846.60
2023-03-26T10:07:16.340Z,97844.80
2023-03-26T10:10:21.097Z,97846.20
2023-03-26T10:13:11.663Z,97839.80
2023-03-26T10:16:01.542Z,97837.20
2023-03-26T10:19:31.376Z,97839.80
2023-03-26T10:22:34.680Z,97840.60
2023-03-26T10:25:28.445Z,97841.60
2023-03-26T10:28:34.368Z,97835.40
2023-03-26T10:31:29.538Z,97832.80
2023-03-26T10:34:29.168Z,97834.00
2023-03-26T10:37:10.493Z,97834.80
2023-03-26T10:40:00.256Z,97834.40
2023-03-26T10:43:15.747Z,97832.60
2023-03-26T10:46:04.938Z,97841.20
2023-03-26T10:49:52.475Z,97839.20
2023-03-26T10:52:39.159Z,97854.00
2023-03-26T10:55:32.412Z,97847.00
2023-03-26T10:58:24.202Z,97849.00
2023-03-26T11:01:06.256Z,97847.40
2023-03-26T11:03:52.121Z,97848.80
2023-03-26T11:07:00.779Z,97848.80
2023-03-26T11:09:42.308Z,97861.40
2023-03-26T11:12:33.980Z,97852.60
2023-03-26T11:15:07.620Z,97841.20
2023-03-26T11:17:54.362Z,97844.00
2023-03-26T11:20:37.420Z,97845.40
2023-03-26T11:23:27.320Z,97841.40
2023-03-26T11:26:16.824Z,97837.40
2023-03-26T11:29:32.217Z,97831.80
2023-03-26T11:32:26.149Z,97822.00
2023-03-26T11:35:09.271Z,97816.40
2023-03-26T11:37:56.622Z,97815.40
2023-03-26T11:40:33.645Z,97815.40
2023-03-26T11:43:08.675Z,97807.60
2023-03-26T11:45:44.747Z,97805.00
2023-03-26T11:48:24.900Z,97803.80
2023-03-26T11:51:02.672Z,97809.00
2023-03-26T11:53:38.576Z,97804.80
2023-03-26T11:56:27.748Z,97806.80
2023-03-26T11:59:12.752Z,97799.20
2023-03-26T12:01:57.525Z,97792.40
2023-03-26T12:04:35.049Z,97792.40
2023-03-26T12:07:33.353Z,97792.20
2023-03-26T12:10:18.091Z,97781.60
2023-03-26T12:12:48.709Z,97775.60
2023-03-26T12:15:21.395Z,97778.20
2023-03-26T12:17:57.096Z,97773.60
2023-03-26T12:20:25.053Z,97772.00
2023-03-26T12:22:59.524Z,97772.40
2023-03-26T12:25:33.760Z,97769.20
2023-03-26T12:28:13.873Z,97762.00
2023-03-26T12:30:52.842Z,97765.20
2023-03-26T12:33:34.440Z,97756.00
2023-03-26T12:36:31.205Z,97750.20
2023-03-26T12:39:16.731Z,97756.80
2023-03-26T12:44:42.403Z,97768.40
2023-03-26T12:44:58.900Z,97757.60
2023-03-26T12:47:58.182Z,97741.40
2023-03-26T12:50:46.392Z,97742.20
2023-03-26T12:53:33.706Z,97733.40
2023-03-26T12:56:20.024Z,97740.80
2023-03-26T12:59:06.698Z,97747.40
2023-03-26T13:01:58.671Z,97739.80
2023-03-26T13:04:40.206Z,97735.80
2023-03-26T13:07:48.106Z,97732.00
2023-03-26T13:10:59.282Z,97728.80
2023-03-26T13:14:18.158Z,97728.60
2023-03-26T13:16:57.782Z,97738.80
2023-03-26T13:19:53.770Z,97745.60
2023-03-26T13:22:39.231Z,97732.00
2023-03-26T13:25:50.463Z,97726.00
2023-03-26T13:28:33.825Z,97711.80
2023-03-26T13:31:12.781Z,97710.40
2023-03-26T13:33:56.293Z,97702.60
2023-03-26T13:36:42.463Z,97693.80
2023-03-26T13:39:26.159Z,97686.20
2023-03-26T13:42:37.926Z,97684.20
2023-03-26T13:45:20.795Z,97688.60
2023-03-26T13:47:52.266Z,97682.80
2023-03-26T13:50:43.875Z,97683.80
2023-03-26T13:53:23.591Z,97686.40
2023-03-26T13:55:58.689Z,97688.40
2023-03-26T13:58:43.062Z,97682.80
2023-03-26T14:01:33.916Z,97689.00
2023-03-26T14:04:22.338Z,97689.60
2023-03-26T14:06:57.737Z,97692.20
2023-03-26T14:09:44.314Z,97680.40
2023-03-26T14:13:00.199Z,97683.60
2023-03-26T14:15:44.368Z,97678.80
2023-03-26T14:18:30.997Z,97678.80
2023-03-26T14:21:36.219Z,97679.40
2023-03-26T14:24:49.909Z,97676.00
2023-03-26T14:27:38.180Z,97681.40
2023-03-26T14:30:39.543Z,97675.60
2023-03-26T14:33:46.214Z,97671.20
2023-03-26T14:36:51.477Z,97675.20
2023-03-26T14:39:51.917Z,97670.00
2023-03-26T14:42:56.525Z,97673.60
2023-03-26T14:46:12.326Z,97666.40
2023-03-26T14:49:05.773Z,97662.00
2023-03-26T14:51:54.888Z,97663.60
2023-03-26T14:54:31.685Z,97660.00
2023-03-26T14:57:27.566Z,97659.80
2023-03-26T15:00:34.609Z,97661.40
2023-03-26T15:03:34.683Z,97664.00
2023-03-26T15:07:09.453Z,97662.20
2023-03-26T15:10:02.670Z,97663.20
2023-03-26T15:13:01.008Z,97665.40
2023-03-26T15:15:56.412Z,97665.80
2023-03-26T15:19:10.719Z,97667.80
2023-03-26T15:22:04.866Z,97658.00
2023-03-26T15:25:10.380Z,97661.00
2023-03-26T15:27:57.389Z,97654.80
2023-03-26T15:31:14.071Z,97656.80
2023-03-26T15:34:25.155Z,97651.00
2023-03-26T15:37:40.737Z,97660.20
2023-03-26T15:40:47.831Z,97657.40
2023-03-26T15:43:22.270Z,97652.20
2023-03-26T15:45:57.410Z,97658.20
2023-03-26T15:48:39.717Z,97656.20
2023-03-26T15:51:32.719Z,97650.80
2023-03-26T15:54:36.512Z,97652.40
2023-03-26T15:57:24.830Z,97649.20
2023-03-26T16:00:25.953Z,97651.00
2023-03-26T16:03:20.181Z,97650.20
2023-03-26T16:06:14.127Z,97646.80
2023-03-26T16:09:04.843Z,97647.60
2023-03-26T16:12:03.389Z,97646.60
2023-03-26T16:14:48.205Z,97644.00
2023-03-26T16:17:23.359Z,97644.20
2023-03-26T16:20:32.618Z,97641.40
2023-03-26T16:23:04.574Z,97631.00
2023-03-26T16:25:52.730Z,97633.20
2023-03-26T16:28:33.833Z,97627.00
2023-03-26T16:31:38.322Z,97626.80
2023-03-26T16:34:09.561Z,97626.40
2023-03-26T16:36:44.188Z,97624.60
2023-03-26T16:39:24.109Z,97622.40
2023-03-26T16:42:32.825Z,97622.00
2023-03-26T16:45:41.897Z,97616.40
2023-03-26T16:48:41.432Z,97613.20
2023-03-26T16:51:39.789Z,97605.40
2023-03-26T16:54:47.564Z,97605.80
2023-03-26T16:57:56.357Z,97610.00
2023-03-26T17:00:39.428Z,97610.20
2023-03-26T17:03:28.248Z,97613.80
2023-03-26T17:05:59.118Z,97610.00
2023-03-26T17:09:29.658Z,97616.60
2023-03-26T17:12:47.238Z,97621.40
2023-03-26T17:15:37.709Z,97626.00
2023-03-26T17:18:30.521Z,97628.00
2023-03-26T17:21:13.794Z,97627.20
2023-03-26T17:23:55.444Z,97628.80
2023-03-26T17:26:46.835Z,97630.60
2023-03-26T17:29:49.833Z,97627.00
2023-03-26T17:32:18.001Z,97622.80
2023-03-26T17:34:51.500Z,97623.40
2023-03-26T17:37:22.228Z,97626.80
2023-03-26T17:39:52.700Z,97624.00
2023-03-26T17:42:36.174Z,97624.00
2023-03-26T17:45:24.615Z,97622.20
2023-03-26T17:48:16.108Z,97623.80
2023-03-26T17:51:18.305Z,97629.80
2023-03-26T17:53:46.668Z,97627.60
2023-03-26T17:56:25.137Z,97631.80
2023-03-26T17:59:12.128Z,97627.20
2023-03-26T18:01:44.943Z,97632.60
2023-03-26T18:04:33.825Z,97628.60
2023-03-26T18:07:44.038Z,97629.00
2023-03-26T18:10:33.452Z,97626.20
2023-03-26T18:13:51.106Z,97618.00
2023-03-26T18:16:25.421Z,97620.20
2023-03-26T18:19:02.630Z,97616.00
2023-03-26T18:21:38.164Z,97611.80
2023-03-26T18:24:27.524Z,97612.40
2023-03-26T18:27:02.767Z,97609.20
2023-03-26T18:29:36.400Z,97608.60
2023-03-26T18:32:24.025Z,97618.40
2023-03-26T18:35:18.790Z,97617.00
2023-03-26T18:37:51.926Z,97623.20
2023-03-26T18:40:24.747Z,97620.20
2023-03-26T18:42:57.312Z,97615.40
2023-03-26T18:45:38.669Z,97616.20
2023-03-26T18:48:17.885Z,97615.00
2023-03-26T18:50:51.887Z,97611.00
2023-03-26T18:53:24.592Z,97608.80
2023-03-26T18:55:52.926Z,97609.40
2023-03-26T18:58:36.563Z,97606.40
2023-03-26T19:01:20.120Z,97615.00
2023-03-26T19:03:53.783Z,97618.40
2023-03-26T19:06:23.595Z,97629.00
2023-03-26T19:08:52.802Z,97634.00
2023-03-26T19:11:21.065Z,97629.20
2023-03-26T19:14:03.389Z,97629.20
2023-03-26T19:16:35.516Z,97629.40
2023-03-26T19:19:07.132Z,97629.00
2023-03-26T19:21:36.526Z,97627.20
2023-03-26T19:24:05.528Z,97622.00
2023-03-26T19:26:34.343Z,97624.40
2023-03-26T19:29:04.031Z,97619.40
2023-03-26T19:31:40.074Z,97609.80
2023-03-26T19:34:13.985Z,97604.20
2023-03-26T19:37:02.927Z,97604.00
2023-03-26T19:39:44.891Z,97596.80
2023-03-26T19:42:26.653Z,97599.60
2023-03-26T19:44:56.890Z,97592.00
2023-03-26T19:47:46.171Z,97598.80
2023-03-26T19:50:26.087Z,97594.00
2023-03-26T19:53:16.120Z,97589.40
2023-03-26T19:56:04.467Z,97582.20
2023-03-26T19:58:32.958Z,97584.80
2023-03-26T20:01:00.916Z,97582.80
2023-03-26T20:03:40.439Z,97578.80
2023-03-26T20:06:30.778Z,97573.40
2023-03-26T20:09:02.154Z,97567.20
2023-03-26T20:11:36.683Z,97566.60
2023-03-26T20:14:15.042Z,97570.80
2023-03-26T20:16:45.423Z,97565.60
2023-03-26T20:19:15.462Z,97563.00
2023-03-26T20:21:45.884Z,97559.80
2023-03-26T20:24:18.528Z,97563.60
2023-03-26T20:26:46.787Z,97563.20
2023-03-26T20:29:15.895Z,97562.80
2023-03-26T20:31:44.230Z,97570.20
2023-03-26T20:34:23.763Z,97560.00
2023-03-26T20:36:55.108Z,97561.00
2023-03-26T20:39:26.305Z,97562.60
2023-03-26T20:41:55.228Z,97555.60
2023-03-26T20:44:23.364Z,97552.60
2023-03-26T20:46:51.488Z,97544.80
2023-03-26T20:49:22.053Z,97545.60
2023-03-26T20:51:49.829Z,97536.40
2023-03-26T20:54:25.247Z,97527.80
2023-03-26T20:56:54.270Z,97525.00
2023-03-26T20:59:26.906Z,97521.40
2023-03-26T21:01:57.815Z,97515.40
2023-03-26T21:04:27.305Z,97519.20
2023-03-26T21:07:06.706Z,97522.80
2023-03-26T21:09:39.410Z,97515.20
2023-03-26T21:12:30.501Z,97511.40
2023-03-26T21:14:58.556Z,97504.40
2023-03-26T21:17:27.207Z,97507.60
2023-03-26T21:19:55.638Z,97512.20
2023-03-26T21:23:00.369Z,97507.60
2023-03-26T21:26:02.857Z,97507.60
2023-03-26T21:28:50.108Z,97512.60
2023-03-26T21:31:22.453Z,97509.80
2023-03-26T21:33:51.951Z,97509.40
2023-03-26T21:36:20.222Z,97504.40
2023-03-26T21:38:50.470Z,97503.40
2023-03-26T21:41:23.907Z,97507.40
2023-03-26T21:43:51.802Z,97501.20
2023-03-26T21:46:20.114Z,97499.20
2023-03-26T21:48:48.114Z,97501.60
2023-03-26T21:51:17.759Z,97490.40
2023-03-26T21:53:46.584Z,97490.20
2023-03-26T21:56:45.033Z,97485.00
2023-03-26T21:59:58.586Z,97473.20
2023-03-26T22:02:40.412Z,97471.00
2023-03-26T22:05:23.387Z,97464.80
2023-03-26T22:08:01.627Z,97469.20
2023-03-26T22:10:30.978Z,97474.20
2023-03-26T22:12:59.604Z,97476.60
2023-03-26T22:15:30.865Z,97477.40
2023-03-26T22:18:04.384Z,97480.20
2023-03-26T22:20:32.092Z,97481.60
2023-03-26T22:23:01.009Z,97482.80
2023-03-26T22:25:29.444Z,97489.00
2023-03-26T22:27:57.628Z,97495.40
2023-03-26T22:30:25.787Z,97497.00
2023-03-26T22:32:53.968Z,97504.60
2023-03-26T22:35:21.725Z,97509.60
2023-03-26T22:37:49.395Z,97501.80
2023-03-26T22:40:17.914Z,97495.00
2023-03-26T22:42:45.515Z,97486.60
2023-03-26T22:45:14.643Z,97472.80
2023-03-26T22:47:42.290Z,97476.00
2023-03-26T22:50:10.724Z,97475.00
2023-03-26T22:52:40.745Z,97481.00
2023-03-26T22:55:10.914Z,97482.20
2023-03-26T22:57:39.739Z,97485.60
2023-03-26T23:00:19.691Z,97484.40
2023-03-26T23:02:47.609Z,97484.20
2023-03-26T23:05:19.028Z,97481.60
2023-03-26T23:07:47.337Z,97480.40
2023-03-26T23:10:15.000Z,97473.40
2023-03-26T23:12:42.983Z,97473.60
2023-03-26T23:15:11.358Z,97473.00
2023-03-26T23:17:39.344Z,97465.40
2023-03-26T23:20:15.135Z,97464.40
2023-03-26T23:22:43.353Z,97460.80
2023-03-26T23:25:11.970Z,97458.40
2023-03-26T23:27:42.409Z,97461.40
2023-03-26T23:30:11.234Z,97460.20
2023-03-26T23:32:38.916Z,97461.40
2023-03-26T23:35:07.315Z,97464.40
2023-03-26T23:37:35.173Z,97457.40
2023-03-26T23:40:09.882Z,97450.20
2023-03-26T23:42:38.199Z,97449.00
2023-03-26T23:45:08.246Z,97448.20
2023-03-26T23:47:36.082Z,97445.40
2023-03-26T23:50:04.990Z,97445.40
2023-03-26T23:52:32.645Z,97450.00
2023-03-26T23:55:01.206Z,97446.00
2023-03-26T23:57:30.481Z,97446.40
2023-03-26T23:59:58.499Z,97445.60
